createdAt,value
2022-09-23T00:00:25.100Z,7.5
2022-09-23T00:05:25.101Z,8.6
2022-09-23T00:10:25.118Z,8.2
2022-09-23T00:15:25.114Z,8.5
2022-09-23T00:20:25.113Z,8.5
2022-09-23T00:25:25.115Z,7.9
2022-09-23T00:30:25.133Z,8.2
2022-09-23T00:35:25.114Z,8
2022-09-23T00:40:25.186Z,8.3
2022-09-23T00:45:25.100Z,7.8
2022-09-23T00:50:25.118Z,7.8
2022-09-23T00:55:25.119Z,8.2
2022-09-23T01:00:25.119Z,8.3
2022-09-23T01:05:25.103Z,7.7
2022-09-23T01:10:25.116Z,7.1
2022-09-23T01:15:25.112Z,9.1
2022-09-23T01:20:25.112Z,7.8
2022-09-23T01:25:25.106Z,7.8
2022-09-23T01:30:25.116Z,8.2
2022-09-23T01:35:25.107Z,8.2
2022-09-23T01:40:25.179Z,8
2022-09-23T01:45:25.099Z,6.8
2022-09-23T01:50:25.108Z,7.6
2022-09-23T01:55:25.108Z,6.7
2022-09-23T02:00:25.112Z,7.2
2022-09-23T02:05:25.094Z,6.8
2022-09-23T02:10:25.115Z,6.9
2022-09-23T02:15:25.099Z,8.8
2022-09-23T02:20:25.110Z,8.8
2022-09-23T02:25:25.100Z,6.9
2022-09-23T02:30:25.102Z,8.3
2022-09-23T02:35:25.104Z,6
2022-09-23T02:40:25.151Z,6
2022-09-23T02:45:25.104Z,7.8
2022-09-23T02:50:25.104Z,7.9
2022-09-23T02:55:25.105Z,7.3
2022-09-23T03:00:25.103Z,7.3
2022-09-23T03:05:25.099Z,6.8
2022-09-23T03:10:25.111Z,6.7
2022-09-23T03:15:25.098Z,7
2022-09-23T03:20:25.106Z,6.6
2022-09-23T03:25:25.097Z,6.7
2022-09-23T03:30:25.105Z,6.7
2022-09-23T03:35:25.101Z,6.6
2022-09-23T03:40:25.173Z,6.8
2022-09-23T03:45:25.141Z,6.3
2022-09-23T03:50:25.106Z,6.3
2022-09-23T03:55:25.096Z,6.5
2022-09-23T04:00:25.107Z,6.3
2022-09-23T04:05:25.098Z,7
2022-09-23T04:10:25.111Z,6.4
2022-09-23T04:15:25.090Z,6.8
2022-09-23T04:20:25.094Z,7.2
2022-09-23T04:25:25.113Z,0
2022-09-23T04:30:25.115Z,6.3
2022-09-23T04:35:25.103Z,5.6
2022-09-23T04:40:25.128Z,6.4
2022-09-23T04:45:25.110Z,6
2022-09-23T04:50:25.111Z,5.8
2022-09-23T04:55:25.096Z,6.9
2022-09-23T05:00:25.114Z,6.1
2022-09-23T05:05:25.106Z,5.5
2022-09-23T05:10:25.120Z,6.1
2022-09-23T05:15:25.116Z,5.7
2022-09-23T05:20:25.113Z,5.6
2022-09-23T05:25:25.099Z,6.3
2022-09-23T05:30:25.106Z,4
2022-09-23T05:35:25.106Z,0
2022-09-23T05:40:25.150Z,0
2022-09-23T05:45:26.875Z,0
2022-09-23T05:50:25.107Z,0
2022-09-23T05:55:25.100Z,0
2022-09-23T06:00:25.101Z,0
2022-09-23T06:05:25.113Z,0
2022-09-23T06:10:25.105Z,0
2022-09-23T06:15:25.107Z,0
2022-09-23T06:20:25.113Z,0
2022-09-23T06:25:25.101Z,0
2022-09-23T06:30:25.113Z,0
2022-09-23T06:35:27.547Z,0
2022-09-23T06:40:25.218Z,0
2022-09-23T06:45:25.097Z,0
2022-09-23T06:50:25.143Z,0
2022-09-23T06:55:25.115Z,0
2022-09-23T07:00:25.134Z,0
2022-09-23T07:05:25.109Z,0
2022-09-23T07:10:25.125Z,0
2022-09-23T07:15:25.103Z,9.7
2022-09-23T07:20:25.119Z,10.2
2022-09-23T07:25:25.109Z,10
2022-09-23T07:30:25.661Z,10.1
2022-09-23T07:35:25.108Z,11.6
2022-09-23T07:40:25.171Z,9.5
2022-09-23T07:45:25.091Z,11.1
2022-09-23T07:50:25.107Z,9.7
2022-09-23T07:55:25.104Z,9
2022-09-23T08:00:25.110Z,12.1
2022-09-23T08:05:25.100Z,10.2
2022-09-23T08:10:25.109Z,9.7
2022-09-23T08:15:25.099Z,9.9
2022-09-23T08:20:25.116Z,9.3
2022-09-23T08:25:25.093Z,12.3
2022-09-23T08:30:25.108Z,10.7
2022-09-23T08:35:25.096Z,11.6
2022-09-23T08:40:25.152Z,9.7
2022-09-23T08:45:25.096Z,10.7
2022-09-23T08:50:25.103Z,11.9
2022-09-23T08:55:25.104Z,12.2
2022-09-23T09:00:25.107Z,10
2022-09-23T09:05:25.101Z,8.4
2022-09-23T09:10:25.098Z,8.6
2022-09-23T09:15:25.301Z,9.5
2022-09-23T09:20:25.100Z,8.7
2022-09-23T09:25:25.111Z,10.5
2022-09-23T09:30:25.113Z,9.6
2022-09-23T09:35:25.118Z,9.4
2022-09-23T09:40:25.137Z,9.2
2022-09-23T09:45:25.101Z,13.3
2022-09-23T09:50:25.105Z,13
2022-09-23T09:55:25.047Z,12.5
2022-09-23T10:00:25.050Z,18.1
2022-09-23T10:05:25.038Z,12.6
2022-09-23T10:10:33.376Z,13.5
2022-09-23T10:15:25.043Z,11.2
2022-09-23T10:20:25.053Z,12.8
2022-09-23T10:25:25.043Z,9.2
2022-09-23T10:30:25.051Z,9.5
2022-09-23T10:35:25.040Z,9.6
2022-09-23T10:40:25.091Z,9.3
2022-09-23T10:45:25.043Z,10.9
2022-09-23T10:50:25.047Z,8.5
2022-09-23T10:55:25.048Z,11
2022-09-23T11:00:25.060Z,8.1
2022-09-23T11:05:25.064Z,8.1
2022-09-23T11:10:44.793Z,9.7
2022-09-23T11:15:25.058Z,10.9
2022-09-23T11:20:25.066Z,8.9
2022-09-23T11:25:25.275Z,11.9
2022-09-23T11:30:25.146Z,8
2022-09-23T11:35:25.086Z,12.6
2022-09-23T11:40:25.108Z,11.8
2022-09-23T11:45:25.065Z,11.8
2022-09-23T11:50:25.083Z,12.5
2022-09-23T11:55:25.094Z,12.5
2022-09-23T12:00:25.080Z,12.9
2022-09-23T12:05:25.208Z,12.9
2022-09-23T12:10:25.097Z,10.2
2022-09-23T12:15:25.070Z,19.9
2022-09-23T12:20:25.082Z,14
2022-09-23T12:25:25.078Z,9.4
2022-09-23T12:30:25.146Z,12.9
2022-09-23T12:35:25.077Z,12
2022-09-23T12:40:25.114Z,10.8
2022-09-23T12:45:25.077Z,12.4
2022-09-23T12:50:25.187Z,8.4
2022-09-23T12:55:25.089Z,11.6
2022-09-23T13:00:25.085Z,11.6
2022-09-23T13:05:25.089Z,9.8
2022-09-23T13:10:25.094Z,8.9
2022-09-23T13:15:25.081Z,11.1
2022-09-23T13:20:25.091Z,15
2022-09-23T13:25:25.092Z,19.7
2022-09-23T13:30:26.289Z,8.3
2022-09-23T13:35:25.088Z,14.1
2022-09-23T13:40:25.122Z,11.2
2022-09-23T13:45:25.155Z,11.9
2022-09-23T13:50:25.085Z,10.5
2022-09-23T13:55:25.090Z,10.1
2022-09-23T14:00:25.088Z,8.4
2022-09-23T14:05:25.080Z,8.2
2022-09-23T14:10:25.098Z,12.8
2022-09-23T14:15:25.083Z,6.7
2022-09-23T14:20:25.095Z,12.7
2022-09-23T14:25:25.271Z,12.9
2022-09-23T14:30:25.087Z,10.6
2022-09-23T14:35:25.087Z,9.4
2022-09-23T14:40:25.119Z,7.7
2022-09-23T14:45:25.107Z,4.9
2022-09-23T14:50:25.102Z,4.8
2022-09-23T14:55:25.091Z,4
2022-09-23T15:00:25.102Z,4
2022-09-23T15:05:25.096Z,11.1
2022-09-23T15:10:25.105Z,9.2
2022-09-23T15:15:25.099Z,7.7
2022-09-23T15:20:25.099Z,8.8
2022-09-23T15:25:25.099Z,11.3
2022-09-23T15:30:25.106Z,10.2
2022-09-23T15:35:25.104Z,12.5
2022-09-23T15:40:25.172Z,10.9
2022-09-23T15:45:25.101Z,9.2
2022-09-23T15:50:25.106Z,7.8
2022-09-23T15:55:25.093Z,6.3
2022-09-23T16:00:25.104Z,8.2
2022-09-23T16:05:25.105Z,6.8
2022-09-23T16:10:25.115Z,6.6
2022-09-23T16:15:25.100Z,5.1
2022-09-23T16:20:25.106Z,5.3
2022-09-23T16:25:25.099Z,8.7
2022-09-23T16:30:25.100Z,9
2022-09-23T16:35:25.103Z,8.8
2022-09-23T16:40:25.188Z,8
2022-09-23T16:45:25.099Z,7.5
2022-09-23T16:50:25.100Z,8
2022-09-23T16:55:25.100Z,9.4
2022-09-23T17:00:25.096Z,8.3
2022-09-23T17:05:25.113Z,9.1
2022-09-23T17:10:25.106Z,8.9
2022-09-23T17:15:25.098Z,9.4
2022-09-23T17:20:25.112Z,9.5
2022-09-23T17:25:25.113Z,10.5
2022-09-23T17:30:25.123Z,10.6
2022-09-23T17:35:25.097Z,9.1
2022-09-23T17:40:25.111Z,10.1
2022-09-23T17:45:25.166Z,10.1
2022-09-23T17:50:25.114Z,9.7
2022-09-23T17:55:25.095Z,9.7
2022-09-23T18:00:25.120Z,10
2022-09-23T18:05:25.103Z,9.9
2022-09-23T18:10:25.115Z,8.8
2022-09-23T18:15:25.105Z,8.5
2022-09-23T18:20:25.106Z,10
2022-09-23T18:25:38.456Z,9.9
2022-09-23T18:30:25.111Z,9.1
2022-09-23T18:35:25.103Z,9.5
2022-09-23T18:40:25.207Z,9.7
2022-09-23T18:45:25.172Z,9.1
2022-09-23T18:50:25.114Z,9.9
2022-09-23T18:55:25.112Z,8.4
2022-09-23T19:00:25.110Z,8.7
2022-09-23T19:05:25.107Z,11.5
2022-09-23T19:10:25.112Z,7.8
2022-09-23T19:15:25.104Z,10.2
2022-09-23T19:20:25.116Z,9.6
2022-09-23T19:25:25.112Z,9.5
2022-09-23T19:30:25.108Z,10.2
2022-09-23T19:35:25.114Z,8.9
2022-09-23T19:40:25.212Z,8.1
2022-09-23T19:45:25.115Z,9.3
2022-09-23T19:50:25.109Z,8.7
2022-09-23T20:00:25.096Z,9.3
2022-09-23T20:05:25.124Z,10.2
2022-09-23T20:10:25.099Z,8.8
2022-09-23T20:15:25.094Z,9.1
2022-09-23T20:20:25.096Z,7.3
2022-09-23T20:25:25.100Z,9.5
2022-09-23T20:30:25.099Z,10.2
2022-09-23T20:35:25.094Z,7.2
2022-09-23T20:40:25.127Z,8.5
2022-09-23T20:45:25.088Z,8.9
2022-09-23T20:50:25.101Z,8.1
2022-09-23T20:55:25.099Z,7.5
2022-09-23T21:00:25.090Z,11.7
2022-09-23T21:05:25.099Z,11.6
2022-09-23T21:10:25.099Z,9.9
2022-09-23T21:15:25.096Z,9.3
2022-09-23T21:20:25.097Z,8.6
2022-09-23T21:25:27.794Z,8.7
2022-09-23T21:30:25.096Z,8.3
2022-09-23T21:35:25.104Z,8.7
2022-09-23T21:40:25.161Z,8.7
2022-09-23T21:45:25.086Z,8.7
2022-09-23T21:50:25.114Z,8.5
2022-09-23T21:55:25.098Z,9.3
2022-09-23T22:00:25.100Z,8.7
2022-09-23T22:05:25.098Z,9.4
2022-09-23T22:10:25.100Z,11.1
2022-09-23T22:15:25.093Z,9.3
2022-09-23T22:20:25.106Z,9
2022-09-23T22:25:25.093Z,8.5
2022-09-23T22:30:25.099Z,8.8
2022-09-23T22:35:25.095Z,6.9
2022-09-23T22:40:25.185Z,6.5
2022-09-23T22:45:25.091Z,8.3
2022-09-23T22:50:25.092Z,8.3
2022-09-23T22:55:25.093Z,8.3
2022-09-23T23:00:25.094Z,7.5
2022-09-23T23:05:25.093Z,6.9
2022-09-23T23:10:25.091Z,9.3
2022-09-23T23:15:25.095Z,10.1
2022-09-23T23:20:25.090Z,7.7
2022-09-23T23:25:25.086Z,8.4
2022-09-23T23:30:25.092Z,9.3
2022-09-23T23:35:25.086Z,0
2022-09-23T23:40:25.146Z,0
2022-09-23T23:45:25.091Z,0
2022-09-23T23:50:25.101Z,0
2022-09-23T23:55:25.094Z,7
